Погода Энженьейру-Белтранна неделю

Парана, Бразилия

18 - 24 июля
  • 18июля
    Сегодня
    +14°
    +27°
    Ясно и безоблачно
    ВремяПогодаТемператураВлажностьДавлениеВетер, м/сВероятность осадков
    00:00Ясно и безоблачно+18°C90 %737 мм2.0 м/с5 %
    03:00Ясно и безоблачно+17°C94 %736 мм2.0 м/с5 %
    06:00Ясно и безоблачно+16°C95 %736 мм2.0 м/с5 %
    09:00Ясно и безоблачно+18°C84 %738 мм1.5 м/с5 %
    12:00Ясно и безоблачно+23°C63 %738 мм1.2 м/с5 %
    15:00Ясно и безоблачно+27°C53 %736 мм1.0 м/с5 %
    18:00Ясно и безоблачно+24°C72 %736 мм1.9 м/с5 %
    21:00Ясно и безоблачно+20°C83 %736 мм2.1 м/с5 %
  • 19июля
    Пятница
    +14°
    +27°
    Ясно и безоблачно
    ВремяПогодаТемператураВлажностьДавлениеВетер, м/сВероятность осадков
    00:00Ясно и безоблачно+18°C89 %737 мм2.1 м/с5 %
    03:00Ясно и безоблачно+16°C90 %736 мм2.1 м/с5 %
    06:00Ясно и безоблачно+15°C89 %737 мм2.2 м/с5 %
    09:00Ясно и безоблачно+18°C77 %739 мм2.1 м/с5 %
    12:00Ясно и безоблачно+23°C57 %740 мм2.0 м/с5 %
    15:00Ясно и безоблачно+27°C47 %738 мм1.3 м/с5 %
    18:00Ясно и безоблачно+22°C69 %737 мм2.2 м/с5 %
    21:00Ясно и безоблачно+20°C77 %738 мм2.1 м/с5 %
  • 20июля
    Суббота
    +14°
    +26°
    Ясно и безоблачно
    ВремяПогодаТемператураВлажностьДавлениеВетер, м/сВероятность осадков
    00:00Ясно и безоблачно+17°C86 %738 мм1.7 м/с5 %
    03:00Ясно и безоблачно+16°C88 %737 мм1.7 м/с5 %
    06:00Ясно и безоблачно+15°C90 %737 мм1.9 м/с5 %
    09:00Ясно и безоблачно+17°C81 %739 мм1.8 м/с5 %
    12:00Ясно и безоблачно+23°C61 %738 мм2.0 м/с5 %
    15:00Ясно и безоблачно+26°C45 %736 мм1.4 м/с5 %
    18:00Ясно и безоблачно+23°C67 %736 мм1.7 м/с5 %
    21:00Ясно и безоблачно+19°C84 %736 мм2.0 м/с5 %
  • 21июля
    Воскресенье
    +16°
    +26°
    Ясно и безоблачно
    ВремяПогодаТемператураВлажностьДавлениеВетер, м/сВероятность осадков
    00:00Ясно и безоблачно+17°C91 %736 мм2.3 м/с5 %
    03:00Ясно и безоблачно+16°C95 %735 мм2.0 м/с5 %
    06:00Ясно и безоблачно+14°C95 %736 мм2.2 м/с5 %
    09:00Ясно и безоблачно+17°C78 %737 мм2.0 м/с5 %
    12:00Ясно и безоблачно+23°C53 %737 мм2.0 м/с5 %
    15:00Ясно и безоблачно+27°C47 %736 мм1.2 м/с5 %
    18:00Ясно и безоблачно+22°C69 %735 мм2.0 м/с5 %
    21:00Ясно и безоблачно+20°C82 %736 мм1.8 м/с5 %
Мы используем cookies
Соглашаюсь